This is the latest recevied weather packets stored in our database for station/object W5HKR. If no packets are shown the sender has not sent any weather packets the latest 10 day(s).
| Time | Temp. | Humidity | Pressure | Rain* | Wind** | Luminosity | Snow |
|---|---|---|---|---|---|---|---|
| 1778081606 | 18.33° C | 91% | 990.6 hPa | 0 mm | - | - | - |
| 1778081275 | 18.33° C | 91% | 990.6 hPa | 0 mm | - | - | - |
| 1778081005 | 18.33° C | 91% | 990.6 hPa | 0 mm | - | - | - |
| 1778080704 | 18.33° C | 91% | 990.6 hPa | 0 mm | - | - | - |
| 1778080404 | 24.44° C | 89% | 981.8 hPa | 0 mm | - | - | - |
| 1778080195 | 24.44° C | 89% | 981.7 hPa | 0 mm | - | - | - |
| 1778080104 | 18.33° C | 91% | 990.6 hPa | 0 mm | - | - | - |
| 1778079805 | 18.33° C | 91% | 990.6 hPa | 0 mm | - | - | - |
| 1778079504 | 24.44° C | 89% | 982 hPa | 0 mm | - | - | - |
| 1778079204 | 18.33° C | 91% | 990.6 hPa | 0 mm | - | - | - |
| 1778079115 | 24.44° C | 90% | 982 hPa | 0 mm | - | - | - |
| 1778078904 | 24.44° C | 90% | 981.7 hPa | 0 mm | - | - | - |
| 1778078605 | 18.33° C | 91% | 990.6 hPa | 0 mm | - | - | - |
| 1778078304 | 24.44° C | 90% | 982 hPa | 0 mm | - | - | - |
| 1778078035 | 23.89° C | 90% | 981.9 hPa | 0 mm | - | - | - |
| 1778078004 | 23.89° C | 90% | 982.1 hPa | 0 mm | - | - | - |
| 1778077406 | 24.44° C | 89% | 981.4 hPa | 0 mm | - | - | - |
| 1778077104 | 24.44° C | 90% | 981.4 hPa | 0 mm | - | - | - |
| 1778076956 | 24.44° C | 90% | 981.2 hPa | 0 mm | - | - | - |
| 1778076804 | 24.44° C | 90% | 981.6 hPa | 0 mm | - | - | - |
| 1778076505 | 24.44° C | 90% | 981.3 hPa | 0 mm | - | - | - |
| 1778076204 | 18.33° C | 91% | 990.6 hPa | 0 mm | - | - | - |
| 1778075875 | 23.89° C | 91% | 980.7 hPa | 0 mm | - | - | - |
| 1778075604 | 23.89° C | 91% | 980.7 hPa | 0 mm | - | - | - |
| 1778075305 | 23.89° C | 91% | 980.7 hPa | 0 mm | - | - | - |
* Rain latest hour (hover to see other rain measurements)
** Current wind speed in m/s (hover to see current wind gust speed)